createdAt,value
2023-05-22T00:01:56.771Z,5.30
2023-05-22T00:04:24.143Z,7.50
2023-05-22T00:06:51.365Z,7.22
2023-05-22T00:09:18.495Z,8.63
2023-05-22T00:11:45.697Z,6.28
2023-05-22T00:14:16.158Z,10.27
2023-05-22T00:16:43.339Z,6.60
2023-05-22T00:19:13.407Z,10.13
2023-05-22T00:21:40.880Z,4.95
2023-05-22T00:24:08.372Z,6.28
2023-05-22T00:26:35.754Z,9.07
2023-05-22T00:29:03.620Z,5.65
2023-05-22T00:31:30.769Z,6.07
2023-05-22T00:33:59.148Z,7.10
2023-05-22T00:36:26.268Z,6.22
2023-05-22T00:38:53.396Z,4.20
2023-05-22T00:41:22.249Z,5.22
2023-05-22T00:43:50.985Z,7.10
2023-05-22T00:46:21.505Z,10.73
2023-05-22T00:48:49.232Z,7.57
2023-05-22T00:51:16.480Z,8.50
2023-05-22T00:53:44.225Z,4.30
2023-05-22T00:56:12.338Z,4.85
2023-05-22T00:58:39.556Z,4.35
2023-05-22T01:01:09.625Z,4.20
2023-05-22T01:03:46.635Z,4.15
2023-05-22T01:06:15.041Z,8.52
2023-05-22T01:08:42.806Z,5.25
2023-05-22T01:11:25.002Z,7.85
2023-05-22T01:14:01.059Z,5.55
2023-05-22T01:16:46.710Z,6.88
2023-05-22T01:19:47.595Z,4.95
2023-05-22T01:23:03.001Z,6.47
2023-05-22T01:25:45.434Z,4.50
2023-05-22T01:28:45.950Z,5.65
2023-05-22T01:31:18.321Z,5.28
2023-05-22T01:33:51.891Z,5.30
2023-05-22T01:36:22.513Z,6.13
2023-05-22T01:38:52.718Z,4.03
2023-05-22T01:41:21.491Z,7.20
2023-05-22T01:43:48.782Z,4.50
2023-05-22T01:46:16.049Z,8.13
2023-05-22T01:48:43.188Z,5.50
2023-05-22T01:51:23.980Z,5.82
2023-05-22T01:54:06.188Z,7.38
2023-05-22T01:56:40.748Z,4.43
2023-05-22T01:59:13.753Z,7.93
2023-05-22T02:01:41.773Z,4.72
2023-05-22T02:04:10.329Z,8.52
2023-05-22T02:06:38.541Z,4.35
2023-05-22T02:09:06.277Z,5.20
2023-05-22T02:11:34.680Z,5.43
2023-05-22T02:14:02.207Z,6.82
2023-05-22T02:16:30.366Z,5.82
2023-05-22T02:19:05.845Z,4.90
2023-05-22T02:21:36.359Z,6.50
2023-05-22T02:24:03.762Z,6.50
2023-05-22T02:26:31.035Z,4.60
2023-05-22T02:28:58.871Z,6.20
2023-05-22T02:31:26.393Z,5.72
2023-05-22T02:33:53.856Z,4.88
2023-05-22T02:36:21.067Z,4.75
2023-05-22T02:38:48.605Z,7.15
2023-05-22T02:41:15.806Z,3.72
2023-05-22T02:43:43.042Z,5.93
2023-05-22T02:46:10.263Z,9.85
2023-05-22T02:48:37.447Z,6.15
2023-05-22T02:51:04.789Z,9.10
2023-05-22T02:53:33.613Z,6.30
2023-05-22T02:56:01.155Z,5.50
2023-05-22T02:58:28.374Z,5.30
2023-05-22T03:00:55.668Z,5.28
2023-05-22T03:03:24.982Z,5.10
2023-05-22T03:05:58.383Z,5.07
2023-05-22T03:08:28.120Z,5.65
2023-05-22T03:10:59.628Z,7.00
2023-05-22T03:13:26.733Z,7.78
2023-05-22T03:15:53.927Z,4.18
2023-05-22T03:18:21.844Z,3.67
2023-05-22T03:20:49.434Z,6.68
2023-05-22T03:23:16.675Z,5.32
2023-05-22T03:25:43.972Z,9.05
2023-05-22T03:28:11.234Z,4.90
2023-05-22T03:30:38.549Z,5.80
2023-05-22T03:33:05.989Z,6.22
2023-05-22T03:35:33.192Z,8.98
2023-05-22T03:38:00.370Z,5.60
2023-05-22T03:40:27.549Z,6.57
2023-05-22T03:42:54.692Z,6.93
2023-05-22T03:45:21.879Z,5.38
2023-05-22T03:47:49.190Z,5.47
2023-05-22T03:50:16.431Z,6.18
2023-05-22T03:52:43.538Z,6.97
2023-05-22T03:55:10.884Z,5.70
2023-05-22T03:57:38.129Z,5.82
2023-05-22T04:00:12.525Z,8.25
2023-05-22T04:02:40.094Z,5.22
2023-05-22T04:05:09.343Z,8.43
2023-05-22T04:07:37.081Z,5.45
2023-05-22T04:10:05.184Z,5.53
2023-05-22T04:12:32.532Z,9.60
2023-05-22T04:14:59.786Z,6.70
2023-05-22T04:17:32.401Z,7.28
2023-05-22T04:20:00.311Z,6.60
2023-05-22T04:22:27.938Z,6.18
2023-05-22T04:24:55.150Z,4.93
2023-05-22T04:27:22.925Z,7.45
2023-05-22T04:29:50.456Z,7.18
2023-05-22T04:32:18.529Z,10.63
2023-05-22T04:34:47.995Z,6.63
2023-05-22T04:37:16.028Z,12.93
2023-05-22T04:39:43.427Z,9.00
2023-05-22T04:42:10.597Z,10.02
2023-05-22T04:44:38.270Z,8.45
2023-05-22T04:47:08.036Z,8.70
2023-05-22T04:49:35.548Z,8.95
2023-05-22T04:52:04.790Z,12.30
2023-05-22T04:54:32.113Z,10.00
2023-05-22T04:56:59.293Z,7.68
2023-05-22T04:59:26.611Z,10.13
2023-05-22T05:01:53.758Z,7.32
2023-05-22T05:04:20.888Z,8.85
2023-05-22T05:06:48.005Z,9.38
2023-05-22T05:09:15.202Z,8.93
2023-05-22T05:11:42.441Z,9.40
2023-05-22T05:14:09.587Z,11.60
2023-05-22T05:16:36.758Z,6.63
2023-05-22T05:19:04.122Z,6.35
2023-05-22T05:21:31.448Z,14.40
2023-05-22T05:23:58.652Z,6.85
2023-05-22T05:26:27.127Z,6.43
2023-05-22T05:28:54.643Z,7.88
2023-05-22T05:31:21.844Z,5.07
2023-05-22T05:33:49.870Z,9.70
2023-05-22T05:36:17.091Z,8.65
2023-05-22T05:38:44.251Z,8.70
2023-05-22T05:41:11.393Z,8.45
2023-05-22T05:43:38.514Z,10.05
2023-05-22T05:46:06.150Z,11.80
2023-05-22T05:48:33.621Z,9.50
2023-05-22T05:51:00.846Z,13.27
2023-05-22T05:53:28.541Z,9.52
2023-05-22T05:55:55.690Z,8.90
2023-05-22T05:58:22.914Z,5.22
2023-05-22T06:00:50.094Z,10.10
2023-05-22T06:03:17.939Z,12.50
2023-05-22T06:05:49.749Z,7.03
2023-05-22T06:08:17.017Z,8.38
2023-05-22T06:10:44.292Z,8.07
2023-05-22T06:13:11.468Z,6.72
2023-05-22T06:15:38.973Z,7.63
2023-05-22T06:18:06.261Z,11.27
2023-05-22T06:20:33.694Z,7.60
2023-05-22T06:23:00.816Z,8.45
2023-05-22T06:25:29.932Z,10.18
2023-05-22T06:27:57.082Z,10.88
2023-05-22T06:30:38.864Z,11.05
2023-05-22T06:33:10.949Z,7.43
2023-05-22T06:35:38.130Z,15.82
2023-05-22T06:38:05.288Z,5.43
2023-05-22T06:40:32.458Z,9.60
2023-05-22T06:42:59.606Z,10.60
2023-05-22T06:45:26.915Z,11.13
2023-05-22T06:47:54.925Z,6.28
2023-05-22T06:50:22.192Z,7.20
2023-05-22T06:52:49.394Z,8.48
2023-05-22T06:55:16.773Z,9.70
2023-05-22T06:57:44.111Z,10.60
2023-05-22T07:00:12.762Z,8.93
2023-05-22T07:02:40.160Z,5.53
2023-05-22T07:05:08.198Z,11.38
2023-05-22T07:07:35.926Z,4.85
2023-05-22T07:10:03.408Z,8.65
2023-05-22T07:12:30.717Z,10.43
2023-05-22T07:14:59.967Z,8.40
2023-05-22T07:17:27.435Z,7.75
2023-05-22T07:19:54.672Z,11.57
2023-05-22T07:22:46.989Z,8.73
2023-05-22T07:25:14.173Z,10.25
2023-05-22T07:27:41.308Z,11.30
2023-05-22T07:30:09.056Z,7.10
2023-05-22T07:32:36.296Z,34.63
2023-05-22T07:35:03.932Z,53.45
2023-05-22T07:37:31.733Z,40.20
2023-05-22T07:39:59.027Z,32.55
2023-05-22T07:42:27.289Z,30.80
2023-05-22T07:44:54.456Z,46.00
2023-05-22T07:47:21.642Z,25.50
2023-05-22T07:49:48.792Z,14.13
2023-05-22T07:52:15.985Z,17.88
2023-05-22T07:54:45.184Z,15.00
2023-05-22T07:57:12.998Z,11.13
2023-05-22T07:59:40.136Z,7.40
2023-05-22T08:02:09.984Z,9.95
2023-05-22T08:04:37.369Z,12.25
2023-05-22T08:07:04.838Z,9.40
2023-05-22T08:09:32.062Z,8.63
2023-05-22T08:11:59.202Z,12.30
2023-05-22T08:14:26.375Z,15.63
2023-05-22T08:16:54.947Z,10.68
2023-05-22T08:19:22.272Z,7.65
2023-05-22T08:21:49.563Z,12.07
2023-05-22T08:24:16.753Z,10.93
2023-05-22T08:26:44.012Z,17.08
2023-05-22T08:29:11.544Z,10.77
2023-05-22T08:31:38.767Z,11.35
2023-05-22T08:34:07.137Z,6.10
2023-05-22T08:36:34.482Z,7.93
2023-05-22T08:39:01.958Z,7.13
2023-05-22T08:41:29.621Z,7.82
2023-05-22T08:43:57.088Z,10.30
2023-05-22T08:46:28.239Z,13.57
2023-05-22T08:48:57.128Z,9.57
2023-05-22T08:51:28.636Z,7.15
2023-05-22T08:53:58.894Z,8.20
2023-05-22T08:56:28.571Z,7.72
2023-05-22T08:58:57.553Z,6.07
2023-05-22T09:01:24.884Z,9.05
2023-05-22T09:03:52.431Z,10.48
2023-05-22T09:06:19.604Z,11.10
2023-05-22T09:08:46.786Z,7.13
2023-05-22T09:11:13.975Z,5.82
2023-05-22T09:13:41.507Z,9.23
2023-05-22T09:16:12.721Z,12.20
2023-05-22T09:18:40.643Z,12.40
2023-05-22T09:21:21.612Z,9.38
2023-05-22T09:23:59.870Z,14.48
2023-05-22T09:26:29.110Z,9.27
2023-05-22T09:28:57.274Z,13.45
2023-05-22T09:31:24.501Z,7.53
2023-05-22T09:33:51.730Z,6.93
2023-05-22T09:36:18.868Z,10.40
2023-05-22T09:38:46.234Z,10.80
2023-05-22T09:41:13.602Z,7.80
2023-05-22T09:43:49.735Z,19.30
2023-05-22T09:46:17.322Z,7.13
2023-05-22T09:48:44.676Z,8.43
2023-05-22T09:51:12.975Z,6.43
2023-05-22T09:53:41.856Z,5.60
2023-05-22T09:56:14.695Z,11.55
2023-05-22T09:58:45.308Z,4.97
2023-05-22T10:01:14.047Z,7.25
2023-05-22T10:03:41.841Z,5.55
2023-05-22T10:06:12.192Z,5.30
2023-05-22T10:08:44.139Z,6.93
2023-05-22T10:11:11.917Z,6.28
2023-05-22T10:13:40.071Z,5.85
2023-05-22T10:16:07.853Z,3.47
2023-05-22T10:18:35.930Z,8.48
2023-05-22T10:21:03.491Z,3.97
2023-05-22T10:23:31.084Z,5.10
2023-05-22T10:25:58.358Z,5.20
2023-05-22T10:28:29.470Z,6.32
2023-05-22T10:31:02.083Z,4.38
2023-05-22T10:33:34.282Z,5.82
2023-05-22T10:36:22.244Z,5.25
2023-05-22T10:39:34.316Z,6.60
2023-05-22T10:42:01.691Z,11.52
2023-05-22T10:44:29.264Z,8.25
2023-05-22T10:46:56.446Z,7.40
2023-05-22T10:49:23.918Z,6.97
2023-05-22T10:51:57.344Z,7.13
2023-05-22T10:54:43.916Z,5.25
2023-05-22T10:57:17.158Z,9.15
2023-05-22T10:59:47.823Z,5.10
2023-05-22T11:02:22.588Z,7.20
2023-05-22T11:04:49.972Z,8.35
2023-05-22T11:07:17.293Z,8.18
2023-05-22T11:09:47.680Z,6.13
2023-05-22T11:12:24.867Z,8.23
2023-05-22T11:14:56.288Z,4.22
2023-05-22T11:17:30.721Z,6.32
2023-05-22T11:20:18.539Z,7.75
2023-05-22T11:23:05.618Z,5.57
2023-05-22T11:25:33.840Z,4.70
2023-05-22T11:28:05.690Z,3.90
2023-05-22T11:30:34.328Z,6.40
2023-05-22T11:33:02.246Z,9.45
2023-05-22T11:35:29.537Z,6.82
2023-05-22T11:37:56.902Z,7.75
2023-05-22T11:40:25.647Z,6.07
2023-05-22T11:42:53.728Z,5.30
2023-05-22T11:45:21.604Z,6.90
2023-05-22T11:47:49.088Z,5.68
2023-05-22T11:50:22.674Z,7.53
2023-05-22T11:52:53.938Z,6.47
2023-05-22T11:55:21.065Z,5.97
2023-05-22T11:57:48.426Z,6.22
2023-05-22T12:00:16.297Z,6.30
2023-05-22T12:02:47.555Z,5.38
2023-05-22T12:05:16.500Z,5.53
2023-05-22T12:07:44.003Z,10.55
2023-05-22T12:10:11.481Z,7.10
2023-05-22T12:12:39.033Z,7.45
2023-05-22T12:15:07.100Z,7.50
2023-05-22T12:17:37.572Z,7.78
2023-05-22T12:20:05.791Z,5.30
2023-05-22T12:22:33.067Z,7.07
2023-05-22T12:25:00.300Z,6.22
2023-05-22T12:27:33.193Z,4.18
2023-05-22T12:30:10.484Z,6.47
2023-05-22T12:32:40.015Z,4.97
2023-05-22T12:35:14.376Z,4.85
2023-05-22T12:37:48.309Z,4.38
2023-05-22T12:40:15.890Z,6.03
2023-05-22T12:42:44.730Z,3.70
2023-05-22T12:45:13.153Z,3.90
2023-05-22T12:47:40.442Z,5.60
2023-05-22T12:50:08.274Z,3.97
2023-05-22T12:52:35.962Z,7.57
2023-05-22T12:55:03.215Z,8.98
2023-05-22T12:57:30.497Z,4.80
2023-05-22T12:59:57.641Z,5.13
2023-05-22T13:02:24.860Z,7.10
2023-05-22T13:04:52.086Z,4.75
2023-05-22T13:07:19.270Z,5.68
2023-05-22T13:09:48.210Z,6.20
2023-05-22T13:12:15.502Z,8.52
2023-05-22T13:14:42.703Z,9.20
2023-05-22T13:17:10.569Z,10.98
2023-05-22T13:19:38.264Z,4.63
2023-05-22T13:22:07.360Z,5.65
2023-05-22T13:24:34.535Z,3.85
2023-05-22T13:27:11.099Z,5.75
2023-05-22T13:29:38.265Z,6.13
2023-05-22T13:32:05.895Z,6.07
2023-05-22T13:39:27.717Z,8.13
2023-05-22T13:41:54.994Z,4.85
2023-05-22T13:44:22.305Z,3.97
2023-05-22T13:46:49.519Z,5.20
2023-05-22T13:49:16.847Z,5.97
2023-05-22T13:51:44.377Z,5.45
2023-05-22T13:54:11.692Z,4.18
2023-05-22T13:56:38.963Z,4.60
2023-05-22T13:59:09.174Z,6.32
2023-05-22T14:01:36.748Z,6.88
2023-05-22T14:04:04.645Z,6.57
2023-05-22T14:06:31.989Z,5.97
2023-05-22T14:08:59.678Z,6.30
2023-05-22T14:11:27.433Z,6.25
2023-05-22T14:13:54.634Z,6.68
2023-05-22T14:16:22.325Z,3.50
2023-05-22T14:18:49.599Z,4.28
2023-05-22T14:21:18.661Z,4.60
2023-05-22T14:28:36.408Z,4.40
2023-05-22T14:31:03.867Z,9.15
2023-05-22T14:33:31.196Z,5.85
2023-05-22T14:35:58.431Z,6.68
2023-05-22T14:38:26.287Z,7.15
2023-05-22T14:40:53.548Z,7.75
2023-05-22T14:43:20.837Z,6.43
2023-05-22T14:45:48.264Z,5.78
2023-05-22T14:48:15.925Z,5.43
2023-05-22T14:50:43.168Z,7.63
2023-05-22T14:53:10.466Z,7.70
2023-05-22T14:55:38.079Z,4.70
2023-05-22T14:58:05.590Z,3.92
2023-05-22T15:00:32.804Z,5.88
2023-05-22T15:03:02.685Z,6.68
2023-05-22T15:05:30.170Z,5.57
2023-05-22T15:07:58.544Z,6.10
2023-05-22T15:10:26.203Z,5.70
2023-05-22T15:12:53.638Z,9.80
2023-05-22T15:15:21.140Z,6.93
2023-05-22T15:17:48.405Z,12.10
2023-05-22T15:20:15.583Z,9.23
2023-05-22T15:22:43.107Z,5.50
2023-05-22T15:25:12.329Z,4.03
2023-05-22T15:27:39.825Z,5.78
2023-05-22T15:30:09.564Z,9.45
2023-05-22T15:32:37.221Z,6.32
2023-05-22T15:35:05.740Z,5.78
2023-05-22T15:37:33.925Z,10.55
2023-05-22T15:40:01.795Z,11.88
2023-05-22T15:42:29.934Z,5.10
2023-05-22T15:44:58.872Z,9.85
2023-05-22T15:47:26.236Z,9.45
2023-05-22T15:49:53.496Z,5.93
2023-05-22T15:52:23.332Z,5.60
2023-05-22T15:54:50.667Z,6.60
2023-05-22T15:57:17.857Z,8.38
2023-05-22T15:59:47.322Z,4.72
2023-05-22T16:02:14.879Z,5.13
2023-05-22T16:04:42.238Z,5.95
2023-05-22T16:07:09.387Z,6.38
2023-05-22T16:09:36.573Z,6.38
2023-05-22T16:12:04.530Z,6.22
2023-05-22T16:14:31.902Z,6.88
2023-05-22T16:16:59.184Z,11.30
2023-05-22T16:19:33.850Z,10.73
2023-05-22T16:24:28.536Z,8.20
2023-05-22T16:26:56.661Z,4.05
2023-05-22T16:29:23.849Z,10.15
2023-05-22T16:31:52.140Z,5.20
2023-05-22T16:34:21.768Z,7.90
2023-05-22T16:36:49.005Z,4.25
2023-05-22T16:39:16.289Z,5.50
2023-05-22T16:41:43.610Z,4.75
2023-05-22T16:44:10.781Z,5.75
2023-05-22T16:46:37.968Z,11.40
2023-05-22T16:49:05.765Z,13.00
2023-05-22T16:51:33.120Z,6.03
2023-05-22T16:54:00.546Z,7.03
2023-05-22T16:56:28.174Z,5.63
2023-05-22T16:58:57.980Z,6.90
2023-05-22T17:01:27.325Z,4.72
2023-05-22T17:03:54.759Z,5.03
2023-05-22T17:06:22.722Z,4.15
2023-05-22T17:08:49.961Z,6.82
2023-05-22T17:11:17.218Z,7.43
2023-05-22T17:13:44.488Z,5.40
2023-05-22T17:16:11.718Z,5.05
2023-05-22T17:18:38.868Z,6.72
2023-05-22T17:21:09.077Z,5.65
2023-05-22T17:23:37.261Z,5.57
2023-05-22T17:26:04.743Z,5.00
2023-05-22T17:28:32.028Z,5.90
2023-05-22T17:30:59.398Z,5.18
2023-05-22T17:33:26.694Z,7.00
2023-05-22T17:35:53.961Z,5.05
2023-05-22T17:38:21.971Z,3.83
2023-05-22T17:40:49.516Z,9.20
2023-05-22T17:43:19.016Z,6.38
2023-05-22T17:45:49.887Z,8.18
2023-05-22T17:48:23.285Z,6.18
2023-05-22T17:50:50.768Z,4.80
2023-05-22T17:53:19.630Z,5.45
2023-05-22T17:55:48.337Z,6.20
2023-05-22T17:58:16.651Z,5.82
2023-05-22T18:00:43.883Z,5.38
2023-05-22T18:03:12.194Z,7.07
2023-05-22T18:05:39.567Z,7.65
2023-05-22T18:14:50.509Z,3.67
2023-05-22T18:17:17.809Z,4.05
2023-05-22T18:19:45.104Z,6.57
2023-05-22T18:22:12.660Z,5.78
2023-05-22T18:24:40.665Z,6.53
2023-05-22T18:27:07.915Z,8.63
2023-05-22T18:29:35.389Z,7.63
2023-05-22T18:32:03.024Z,6.57
2023-05-22T18:34:31.425Z,6.25
2023-05-22T18:36:59.604Z,9.65
2023-05-22T18:39:26.894Z,5.18
2023-05-22T18:41:54.154Z,7.20
2023-05-22T18:44:23.211Z,7.07
2023-05-22T18:46:50.623Z,10.02
2023-05-22T18:49:17.816Z,4.63
2023-05-22T18:51:45.097Z,7.57
2023-05-22T18:54:12.283Z,4.10
2023-05-22T18:56:39.522Z,6.40
2023-05-22T18:59:06.903Z,6.80
2023-05-22T19:01:34.213Z,6.00
2023-05-22T19:04:01.455Z,4.55
2023-05-22T19:06:28.995Z,5.78
2023-05-22T19:08:56.183Z,6.95
2023-05-22T19:11:23.366Z,7.93
2023-05-22T19:13:50.789Z,8.40
2023-05-22T19:16:18.112Z,9.05
2023-05-22T19:18:45.447Z,11.65
2023-05-22T19:21:12.880Z,6.25
2023-05-22T19:23:40.187Z,7.63
2023-05-22T19:26:07.414Z,8.80
2023-05-22T19:28:34.641Z,6.20
2023-05-22T19:31:03.091Z,6.78
2023-05-22T19:33:33.719Z,5.90
2023-05-22T19:36:02.291Z,8.02
2023-05-22T19:38:31.023Z,5.28
2023-05-22T19:40:58.288Z,5.63
2023-05-22T19:43:25.693Z,5.57
2023-05-22T19:45:53.474Z,6.05
2023-05-22T19:48:21.377Z,6.25
2023-05-22T19:50:48.537Z,6.78
2023-05-22T19:53:15.950Z,6.55
2023-05-22T19:55:43.159Z,6.75
2023-05-22T19:58:10.429Z,5.47
2023-05-22T20:00:38.198Z,8.25
2023-05-22T20:03:05.857Z,3.95
2023-05-22T20:05:33.274Z,5.22
2023-05-22T20:08:00.650Z,7.80
2023-05-22T20:10:27.905Z,5.50
2023-05-22T20:12:55.235Z,4.18
2023-05-22T20:15:24.004Z,4.97
2023-05-22T20:17:52.928Z,8.02
2023-05-22T20:20:20.755Z,6.72
2023-05-22T20:22:48.204Z,5.88
2023-05-22T20:25:15.518Z,5.85
2023-05-22T20:27:42.853Z,8.52
2023-05-22T20:30:11.483Z,6.18
2023-05-22T20:32:46.661Z,5.93
2023-05-22T20:37:41.586Z,8.65
2023-05-22T20:40:12.959Z,7.53
2023-05-22T20:42:42.496Z,4.38
2023-05-22T20:45:14.586Z,7.97
2023-05-22T20:47:42.569Z,8.65
2023-05-22T20:50:10.033Z,8.05
2023-05-22T20:52:37.357Z,5.15
2023-05-22T20:55:05.206Z,5.78
2023-05-22T20:57:32.473Z,6.05
2023-05-22T20:59:59.742Z,10.15
2023-05-22T21:02:26.961Z,6.78
2023-05-22T21:04:54.185Z,9.73
2023-05-22T21:07:21.485Z,7.13
2023-05-22T21:09:48.657Z,8.32
2023-05-22T21:12:15.830Z,8.25
2023-05-22T21:14:44.075Z,5.63
2023-05-22T21:17:12.128Z,6.40
2023-05-22T21:19:39.529Z,4.38
2023-05-22T21:22:06.737Z,8.77
2023-05-22T21:24:33.896Z,7.60
2023-05-22T21:27:01.096Z,7.43
2023-05-22T21:29:28.297Z,7.60
2023-05-22T21:31:55.502Z,6.60
2023-05-22T21:34:22.977Z,5.43
2023-05-22T21:36:50.727Z,7.57
2023-05-22T21:39:17.920Z,4.32
2023-05-22T21:41:45.631Z,6.18
2023-05-22T21:44:12.953Z,5.53
2023-05-22T21:46:40.387Z,7.15
2023-05-22T21:49:09.524Z,6.20
2023-05-22T21:51:37.004Z,7.75
2023-05-22T21:54:04.363Z,7.45
2023-05-22T21:56:31.610Z,12.20
2023-05-22T21:58:59.184Z,6.07
2023-05-22T22:01:26.387Z,7.90
2023-05-22T22:03:53.810Z,6.90
2023-05-22T22:06:21.015Z,12.23
2023-05-22T22:08:48.188Z,6.43
2023-05-22T22:11:15.412Z,6.05
2023-05-22T22:13:42.633Z,7.05
2023-05-22T22:16:09.984Z,5.47
2023-05-22T22:18:37.231Z,4.60
2023-05-22T22:21:04.663Z,8.50
2023-05-22T22:23:31.835Z,7.45
2023-05-22T22:25:59.060Z,5.03
2023-05-22T22:28:26.227Z,6.28
2023-05-22T22:30:55.194Z,3.28
2023-05-22T22:33:22.890Z,9.30
2023-05-22T22:35:51.324Z,4.95
2023-05-22T22:38:18.516Z,7.90
2023-05-22T22:40:45.740Z,4.65
2023-05-22T22:43:12.990Z,4.25
2023-05-22T22:45:40.412Z,5.95
2023-05-22T22:48:07.954Z,6.90
2023-05-22T22:50:35.173Z,7.18
2023-05-22T22:53:02.317Z,6.53
2023-05-22T22:55:29.628Z,5.28
2023-05-22T22:57:56.972Z,6.30
2023-05-22T23:00:24.608Z,6.68
2023-05-22T23:02:51.855Z,8.65
2023-05-22T23:05:20.546Z,9.23
2023-05-22T23:07:48.298Z,5.60
2023-05-22T23:10:15.648Z,5.07
2023-05-22T23:12:42.934Z,9.48
2023-05-22T23:15:11.342Z,7.22
2023-05-22T23:17:38.816Z,10.23
2023-05-22T23:20:06.934Z,6.05
2023-05-22T23:22:34.316Z,7.03
2023-05-22T23:25:01.449Z,6.93
2023-05-22T23:27:28.753Z,7.47
2023-05-22T23:29:55.969Z,7.25
2023-05-22T23:32:23.128Z,6.15
2023-05-22T23:34:50.436Z,6.45
2023-05-22T23:37:17.581Z,7.95
2023-05-22T23:39:44.773Z,6.95
2023-05-22T23:42:12.104Z,6.43
2023-05-22T23:44:39.581Z,5.63
2023-05-22T23:47:07.185Z,5.93
2023-05-22T23:49:34.400Z,8.43
2023-05-22T23:52:01.637Z,8.20
2023-05-22T23:54:28.766Z,7.18
2023-05-22T23:56:56.063Z,7.22
2023-05-22T23:59:23.188Z,4.63
